Time;durP1;ratioP1;P1;durP2;ratioP2;P2;SDS_P1;SDS_P2;PMS_P1;PMS_P2;Temp;Humidity;BMP_temperature;BMP_pressure;BME280_temperature;BME280_humidity;BME280_pressure;Samples;Min_cycle;Max_cycle;Signal;HPM_P1;HPM_P2
2023/01/02 00:01:18;;;;;;;17.20;6.28;;;;;;;;;;6106417;19;20011;-71
2023/01/02 00:03:24;;;;;;;14.20;6.18;;;;;;;;;;6105617;19;20042;-71
2023/01/02 00:05:29;;;;;;;16.92;7.05;;;;;;;;;;6105447;19;20050;-71
2023/01/02 00:07:34;;;;;;;16.52;8.13;;;;;;;;;;6103665;19;20078;-71
2023/01/02 00:09:41;;;;;;;12.60;6.60;;;;;;;;;;6102863;19;20365;-72
2023/01/02 00:11:46;;;;;;;16.65;7.72;;;;;;;;;;6105590;19;20010;-71
2023/01/02 00:13:51;;;;;;;18.42;6.95;;;;;;;;;;6102181;19;20013;-69
2023/01/02 00:15:57;;;;;;;17.98;7.30;;;;;;;;;;6103462;19;20021;-69
2023/01/02 00:18:03;;;;;;;17.00;7.55;;;;;;;;;;6101808;19;20322;-69
2023/01/02 00:20:09;;;;;;;13.98;7.05;;;;;;;;;;6104267;19;20450;-69
2023/01/02 00:22:15;;;;;;;13.85;6.95;;;;;;;;;;6102549;19;20080;-70
2023/01/02 00:24:20;;;;;;;20.23;8.32;;;;;;;;;;6102790;19;20019;-72
2023/01/02 00:26:29;;;;;;;17.17;7.03;;;;;;;;;;6104691;19;20010;-73
2023/01/02 00:28:34;;;;;;;16.27;7.18;;;;;;;;;;6105475;19;20014;-71
2023/01/02 00:30:40;;;;;;;17.73;7.90;;;;;;;;;;6104933;19;20376;-68
2023/01/02 00:32:45;;;;;;;16.42;6.90;;;;;;;;;;6102026;19;20492;-68
2023/01/02 00:34:50;;;;;;;17.50;7.72;;;;;;;;;;6104869;19;20014;-69
2023/01/02 00:36:55;;;;;;;15.05;6.68;;;;;;;;;;6104816;19;20021;-70
2023/01/02 00:39:00;;;;;;;15.80;7.10;;;;;;;;;;6104587;19;20414;-69
2023/01/02 00:41:06;;;;;;;16.00;6.82;;;;;;;;;;6106432;19;20014;-69
2023/01/02 00:43:15;;;;;;;15.50;6.50;;;;;;;;;;6103947;19;20021;-69
2023/01/02 00:45:20;;;;;;;17.15;7.13;;;;;;;;;;6105211;19;20023;-69
2023/01/02 00:47:25;;;;;;;15.98;6.90;;;;;;;;;;6106391;19;20027;-69
2023/01/02 00:49:31;;;;;;;14.32;6.47;;;;;;;;;;6104990;19;20566;-69
2023/01/02 00:51:35;;;;;;;14.18;6.65;;;;;;;;;;6104989;19;20050;-69
2023/01/02 00:53:40;;;;;;;16.17;7.20;;;;;;;;;;6099620;19;20006;-69
2023/01/02 00:55:46;;;;;;;15.07;6.43;;;;;;;;;;6105381;19;20039;-69
2023/01/02 00:57:51;;;;;;;17.02;8.30;;;;;;;;;;6100387;19;20078;-69
2023/01/02 00:59:59;;;;;;;13.30;6.70;;;;;;;;;;6104407;19;20014;-70
2023/01/02 01:02:04;;;;;;;17.63;7.38;;;;;;;;;;6098915;19;20359;-69
2023/01/02 01:04:09;;;;;;;15.02;7.30;;;;;;;;;;6102438;19;20023;-71
2023/01/02 01:06:14;;;;;;;16.20;7.03;;;;;;;;;;6101631;19;20035;-71
2023/01/02 01:08:19;;;;;;;14.38;6.65;;;;;;;;;;6103501;19;20576;-71
2023/01/02 01:10:25;;;;;;;14.57;6.75;;;;;;;;;;6102564;19;20018;-71
2023/01/02 01:12:33;;;;;;;14.40;6.97;;;;;;;;;;6101505;19;20602;-71
2023/01/02 01:14:40;;;;;;;16.42;7.28;;;;;;;;;;6101983;19;20022;-71
2023/01/02 01:16:47;;;;;;;15.02;6.72;;;;;;;;;;6095598;19;20429;-70
2023/01/02 01:18:57;;;;;;;16.98;6.95;;;;;;;;;;6098107;19;20079;-70
2023/01/02 01:21:08;;;;;;;15.20;6.82;;;;;;;;;;6100526;19;20448;-71
2023/01/02 01:23:13;;;;;;;16.80;7.05;;;;;;;;;;6100952;19;20122;-71
2023/01/02 01:25:18;;;;;;;17.33;6.78;;;;;;;;;;6098350;19;20015;-71
2023/01/02 01:27:23;;;;;;;11.18;6.25;;;;;;;;;;6100853;19;20472;-72
2023/01/02 01:29:28;;;;;;;15.50;7.00;;;;;;;;;;6100919;19;20078;-71
2023/01/02 01:31:34;;;;;;;16.15;7.10;;;;;;;;;;6098832;19;20471;-69
2023/01/02 01:33:43;;;;;;;15.25;7.38;;;;;;;;;;6100490;19;20515;-69
2023/01/02 01:35:48;;;;;;;11.75;6.55;;;;;;;;;;6100778;19;20046;-71
2023/01/02 01:37:53;;;;;;;11.93;7.10;;;;;;;;;;6100110;19;20582;-69
2023/01/02 01:39:58;;;;;;;14.32;6.63;;;;;;;;;;6103220;19;20006;-69
2023/01/02 01:42:03;;;;;;;14.07;6.63;;;;;;;;;;6099886;19;20006;-71
2023/01/02 01:44:38;;;;;;;15.93;6.35;;;;;;;;;;6102941;19;20015;-70
2023/01/02 01:46:46;;;;;;;15.70;7.47;;;;;;;;;;6098126;19;20007;-69
2023/01/02 01:49:02;;;;;;;16.05;7.93;;;;;;;;;;6098959;19;20452;-69
2023/01/02 01:51:07;;;;;;;14.63;7.65;;;;;;;;;;6098965;19;20447;-69
2023/01/02 01:53:16;;;;;;;16.55;7.10;;;;;;;;;;6099794;19;20408;-69
2023/01/02 01:55:27;;;;;;;12.77;7.10;;;;;;;;;;6098111;19;20045;-68
2023/01/02 01:57:35;;;;;;;16.45;8.65;;;;;;;;;;6096963;19;20007;-69
2023/01/02 01:59:43;;;;;;;17.55;7.88;;;;;;;;;;6099767;19;20023;-69
2023/01/02 02:01:50;;;;;;;17.95;7.57;;;;;;;;;;6079128;19;20103;-69
2023/01/02 02:03:58;;;;;;;18.88;7.68;;;;;;;;;;6096402;19;20471;-69
2023/01/02 02:06:04;;;;;;;13.88;7.13;;;;;;;;;;6100766;19;20032;-69
2023/01/02 02:08:15;;;;;;;18.55;7.97;;;;;;;;;;6099990;19;20018;-69
2023/01/02 02:10:20;;;;;;;17.45;8.05;;;;;;;;;;6098194;19;20460;-69
2023/01/02 02:12:25;;;;;;;16.23;8.02;;;;;;;;;;6097214;19;20450;-69
2023/01/02 02:14:33;;;;;;;17.88;8.23;;;;;;;;;;6103452;19;20046;-69
2023/01/02 02:16:43;;;;;;;21.80;8.38;;;;;;;;;;6102470;19;20023;-68
2023/01/02 02:19:09;;;;;;;17.48;8.73;;;;;;;;;;6094668;19;20007;-73
2023/01/02 02:21:24;;;;;;;23.00;8.23;;;;;;;;;;6096619;19;20006;-72
2023/01/02 02:23:49;;;;;;;15.13;8.10;;;;;;;;;;6097433;19;20027;-72
2023/01/02 02:26:09;;;;;;;15.05;8.90;;;;;;;;;;6101033;19;20874;-71
2023/01/02 02:28:32;;;;;;;17.08;8.23;;;;;;;;;;6099547;19;20714;-71
2023/01/02 02:30:42;;;;;;;18.42;7.88;;;;;;;;;;6101541;19;20454;-71
2023/01/02 02:33:15;;;;;;;20.60;9.23;;;;;;;;;;6098159;19;20475;-72
2023/01/02 02:35:30;;;;;;;16.38;7.65;;;;;;;;;;6104146;19;20010;-72
2023/01/02 02:37:41;;;;;;;15.90;7.35;;;;;;;;;;6106751;19;20100;-71
2023/01/02 02:39:56;;;;;;;18.13;9.65;;;;;;;;;;6104478;19;20007;-71
2023/01/02 02:42:07;;;;;;;16.33;8.05;;;;;;;;;;6105404;19;20005;-71
2023/01/02 02:44:25;;;;;;;14.95;8.32;;;;;;;;;;6104356;19;20017;-71
2023/01/02 02:46:39;;;;;;;17.88;8.48;;;;;;;;;;6107182;19;20007;-75
2023/01/02 02:48:50;;;;;;;19.65;9.30;;;;;;;;;;6103652;19;20763;-68
2023/01/02 02:51:03;;;;;;;21.23;8.52;;;;;;;;;;6102486;19;20021;-70
2023/01/02 02:53:12;;;;;;;17.52;7.72;;;;;;;;;;6105062;19;20017;-73
2023/01/02 02:55:19;;;;;;;14.45;8.02;;;;;;;;;;6107016;19;20010;-72
2023/01/02 02:57:25;;;;;;;19.45;7.75;;;;;;;;;;6105289;19;20007;-72
2023/01/02 02:59:31;;;;;;;17.98;7.53;;;;;;;;;;6105105;19;20038;-72
2023/01/02 03:01:38;;;;;;;17.48;7.63;;;;;;;;;;6107111;19;20017;-72
2023/01/02 03:03:44;;;;;;;13.80;7.30;;;;;;;;;;6104146;19;20015;-72
2023/01/02 03:06:02;;;;;;;12.02;7.43;;;;;;;;;;6103379;19;20015;-72
2023/01/02 03:08:12;;;;;;;16.02;8.20;;;;;;;;;;6103629;19;20249;-71
2023/01/02 03:10:25;;;;;;;17.42;7.78;;;;;;;;;;6105516;19;20010;-71
2023/01/02 03:12:40;;;;;;;15.00;7.83;;;;;;;;;;6106055;19;20032;-71
2023/01/02 03:14:50;;;;;;;18.83;7.38;;;;;;;;;;6103826;19;20017;-70
2023/01/02 03:17:03;;;;;;;16.30;7.63;;;;;;;;;;6108046;19;20018;-71
2023/01/02 03:19:08;;;;;;;;;;;;;;;;;;6107842;19;20023;-72
2023/01/02 03:21:16;;;;;;;12.80;6.38;;;;;;;;;;6106573;19;19914;-72
2023/01/02 03:23:23;;;;;;;14.15;6.85;;;;;;;;;;6105402;19;20007;-71
2023/01/02 03:25:29;;;;;;;18.38;7.28;;;;;;;;;;6106553;19;20012;-71
2023/01/02 03:27:36;;;;;;;13.80;6.60;;;;;;;;;;6107486;19;20017;-68
2023/01/02 03:29:45;;;;;;;16.67;7.03;;;;;;;;;;6105608;19;20003;-68
2023/01/02 03:31:53;;;;;;;16.90;6.95;;;;;;;;;;6107450;19;20499;-69
2023/01/02 03:34:06;;;;;;;13.55;6.78;;;;;;;;;;6105473;19;20463;-69
2023/01/02 03:36:15;;;;;;;15.27;7.50;;;;;;;;;;6102451;19;20027;-70
2023/01/02 03:38:24;;;;;;;16.60;7.32;;;;;;;;;;6104183;19;20031;-71
2023/01/02 03:40:34;;;;;;;16.33;7.60;;;;;;;;;;6102053;19;20440;-71
2023/01/02 03:42:43;;;;;;;19.27;8.20;;;;;;;;;;6102619;19;20322;-71
2023/01/02 03:44:50;;;;;;;15.60;7.47;;;;;;;;;;6099350;19;20007;-71
2023/01/02 03:47:00;;;;;;;14.40;6.82;;;;;;;;;;6103019;19;20038;-71
2023/01/02 03:49:13;;;;;;;15.27;7.30;;;;;;;;;;6102829;19;20011;-71
2023/01/02 03:51:18;;;;;;;13.57;7.78;;;;;;;;;;6104757;19;20058;-72
2023/01/02 03:53:24;;;;;;;13.95;7.82;;;;;;;;;;6101332;19;20034;-71
2023/01/02 03:55:29;;;;;;;17.80;9.27;;;;;;;;;;6106226;19;20609;-72
2023/01/02 03:57:36;;;;;;;20.85;8.43;;;;;;;;;;6099504;19;20427;-71
2023/01/02 03:59:49;;;;;;;15.75;8.55;;;;;;;;;;6106772;19;20014;-71
2023/01/02 04:01:54;;;;;;;;;;;;;;;;;;6102650;19;20017;-71
2023/01/02 04:04:02;;;;;;;12.40;7.15;;;;;;;;;;6105174;19;19954;-72
2023/01/02 04:06:14;;;;;;;17.92;8.93;;;;;;;;;;6103670;19;20014;-73
2023/01/02 04:08:23;;;;;;;18.92;8.07;;;;;;;;;;6100005;19;20356;-68
2023/01/02 04:10:30;;;;;;;22.77;8.80;;;;;;;;;;6099285;19;20027;-70
2023/01/02 04:12:38;;;;;;;13.65;7.65;;;;;;;;;;6102400;19;20010;-70
2023/01/02 04:14:45;;;;;;;15.55;7.70;;;;;;;;;;6099572;19;20321;-70
2023/01/02 04:16:52;;;;;;;16.80;8.27;;;;;;;;;;6102908;19;20579;-72
2023/01/02 04:19:00;;;;;;;12.80;7.47;;;;;;;;;;6106467;19;20014;-68
2023/01/02 04:21:15;;;;;;;15.38;6.72;;;;;;;;;;6105062;19;20008;-68
2023/01/02 04:23:22;;;;;;;14.05;7.18;;;;;;;;;;6105751;19;20078;-70
2023/01/02 04:25:31;;;;;;;14.98;6.63;;;;;;;;;;6106073;19;20014;-68
2023/01/02 04:27:40;;;;;;;13.55;7.35;;;;;;;;;;6104405;19;20498;-68
2023/01/02 04:29:45;;;;;;;16.60;7.95;;;;;;;;;;6101024;19;20534;-68
2023/01/02 04:31:52;;;;;;;18.48;9.40;;;;;;;;;;6101968;19;20014;-68
2023/01/02 04:33:58;;;;;;;16.83;10.02;;;;;;;;;;6100942;19;20368;-68
2023/01/02 04:36:12;;;;;;;14.70;9.00;;;;;;;;;;6102695;19;20010;-68
2023/01/02 04:38:20;;;;;;;9.55;5.38;;;;;;;;;;6100773;19;20014;-69
2023/01/02 04:40:27;;;;;;;8.68;4.47;;;;;;;;;;6101339;19;20387;-72
2023/01/02 04:42:34;;;;;;;7.32;3.75;;;;;;;;;;6101895;19;20337;-72
2023/01/02 04:44:39;;;;;;;7.28;3.38;;;;;;;;;;6100994;19;20010;-71
2023/01/02 04:46:44;;;;;;;7.85;3.78;;;;;;;;;;6100674;19;20018;-70
2023/01/02 04:48:49;;;;;;;5.78;3.13;;;;;;;;;;6104137;19;20046;-71
2023/01/02 04:50:55;;;;;;;6.78;3.08;;;;;;;;;;6103836;19;20148;-71
2023/01/02 04:53:08;;;;;;;7.50;2.60;;;;;;;;;;6096829;19;20026;-71
2023/01/02 04:55:13;;;;;;;5.68;2.97;;;;;;;;;;6102725;19;20010;-71
2023/01/02 04:57:18;;;;;;;6.70;2.35;;;;;;;;;;6102251;19;20014;-71
2023/01/02 04:59:23;;;;;;;3.88;2.33;;;;;;;;;;6103187;19;20464;-72
2023/01/02 05:01:34;;;;;;;6.13;2.55;;;;;;;;;;6104236;19;20010;-71
2023/01/02 05:03:41;;;;;;;4.35;2.47;;;;;;;;;;6099987;19;20042;-72
2023/01/02 05:05:46;;;;;;;5.32;2.42;;;;;;;;;;6102881;19;20338;-73
2023/01/02 05:07:51;;;;;;;5.70;3.00;;;;;;;;;;6105495;19;20183;-73
2023/01/02 05:09:59;;;;;;;6.70;2.95;;;;;;;;;;6100198;19;20018;-72
2023/01/02 05:12:04;;;;;;;4.88;2.63;;;;;;;;;;6099668;19;20042;-72
2023/01/02 05:14:09;;;;;;;5.40;2.60;;;;;;;;;;6102063;19;20039;-72
2023/01/02 05:16:14;;;;;;;5.15;2.50;;;;;;;;;;6101085;19;20014;-71
2023/01/02 05:18:19;;;;;;;5.25;2.50;;;;;;;;;;6106079;19;20018;-72
2023/01/02 05:20:24;;;;;;;5.60;2.80;;;;;;;;;;6102718;19;20011;-72
2023/01/02 05:24:46;;;;;;;5.70;2.85;;;;;;;;;;6102818;19;20066;-70
2023/01/02 05:26:54;;;;;;;8.27;3.17;;;;;;;;;;6105292;19;20430;-70
2023/01/02 05:28:59;;;;;;;6.18;2.80;;;;;;;;;;6101658;19;20090;-71
2023/01/02 05:31:05;;;;;;;7.65;3.38;;;;;;;;;;6101573;19;20019;-68
2023/01/02 05:33:10;;;;;;;9.35;3.20;;;;;;;;;;6101247;19;20046;-69
2023/01/02 05:35:15;;;;;;;6.88;3.35;;;;;;;;;;6101464;19;20014;-68
2023/01/02 05:37:20;;;;;;;9.98;4.30;;;;;;;;;;6097809;19;20511;-71
2023/01/02 05:39:25;;;;;;;8.73;3.42;;;;;;;;;;6101700;19;20015;-72
2023/01/02 05:41:32;;;;;;;8.20;4.30;;;;;;;;;;6101692;19;20443;-71
2023/01/02 05:43:40;;;;;;;8.52;4.35;;;;;;;;;;6101121;19;21188;-73
2023/01/02 05:45:45;;;;;;;8.95;5.05;;;;;;;;;;6097912;19;20463;-72
2023/01/02 05:47:50;;;;;;;10.18;5.00;;;;;;;;;;6099528;19;20317;-73
2023/01/02 05:49:54;;;;;;;11.82;5.20;;;;;;;;;;6102061;19;20015;-72
2023/01/02 05:52:04;;;;;;;18.27;6.38;;;;;;;;;;6102594;19;20014;-73
2023/01/02 05:54:09;;;;;;;15.18;5.80;;;;;;;;;;6098448;19;20015;-73
2023/01/02 05:56:16;;;;;;;15.00;6.32;;;;;;;;;;6099278;19;20015;-72
2023/01/02 05:58:21;;;;;;;12.63;6.15;;;;;;;;;;6101110;19;20760;-72
2023/01/02 06:00:29;;;;;;;14.70;6.30;;;;;;;;;;6101266;19;20019;-72
2023/01/02 06:02:37;;;;;;;11.07;4.82;;;;;;;;;;6100754;19;20042;-72
2023/01/02 06:04:42;;;;;;;16.05;6.13;;;;;;;;;;6099483;19;20014;-71
2023/01/02 06:06:48;;;;;;;14.52;5.10;;;;;;;;;;6098728;19;20388;-73
2023/01/02 06:08:53;;;;;;;9.30;4.78;;;;;;;;;;6103169;19;20025;-70
2023/01/02 06:10:58;;;;;;;10.55;4.65;;;;;;;;;;6107677;19;20397;-70
2023/01/02 06:13:04;;;;;;;14.10;4.85;;;;;;;;;;6106543;19;20007;-68
2023/01/02 06:15:10;;;;;;;9.55;4.07;;;;;;;;;;6103915;19;20570;-69
2023/01/02 06:17:19;;;;;;;14.57;3.58;;;;;;;;;;6104230;19;20090;-71
2023/01/02 06:19:24;;;;;;;8.57;3.30;;;;;;;;;;6106035;19;20017;-71
2023/01/02 06:21:29;;;;;;;8.60;3.45;;;;;;;;;;6106601;19;20027;-71
2023/01/02 06:23:34;;;;;;;10.98;3.10;;;;;;;;;;6107009;19;20351;-71
2023/01/02 06:25:41;;;;;;;11.20;3.25;;;;;;;;;;6105241;19;20086;-71
2023/01/02 06:27:46;;;;;;;9.30;3.40;;;;;;;;;;6107218;19;20039;-71
2023/01/02 06:29:51;;;;;;;11.60;3.20;;;;;;;;;;6106185;19;20012;-71
2023/01/02 06:31:56;;;;;;;6.95;2.88;;;;;;;;;;6105561;19;20186;-71
2023/01/02 06:34:04;;;;;;;11.80;3.30;;;;;;;;;;6109993;19;20006;-71
2023/01/02 06:36:12;;;;;;;11.77;3.47;;;;;;;;;;6109521;19;20065;-71
2023/01/02 06:38:17;;;;;;;8.63;2.90;;;;;;;;;;6108059;19;20067;-69
2023/01/02 06:40:22;;;;;;;10.63;3.30;;;;;;;;;;6110564;19;20045;-68
2023/01/02 06:42:29;;;;;;;7.53;2.45;;;;;;;;;;6107663;19;20014;-68
2023/01/02 06:44:36;;;;;;;9.90;2.90;;;;;;;;;;6109202;19;20018;-68
2023/01/02 06:46:44;;;;;;;9.48;2.38;;;;;;;;;;6081537;19;20115;-68
2023/01/02 06:48:49;;;;;;;8.18;2.58;;;;;;;;;;6103015;19;20053;-68
2023/01/02 06:50:58;;;;;;;7.35;2.72;;;;;;;;;;6107237;19;20038;-68
2023/01/02 06:53:04;;;;;;;9.43;2.80;;;;;;;;;;6108757;19;20042;-68
2023/01/02 06:55:10;;;;;;;9.95;3.90;;;;;;;;;;6106425;19;20424;-68
2023/01/02 06:57:17;;;;;;;9.27;3.10;;;;;;;;;;6106313;19;20114;-70
2023/01/02 06:59:22;;;;;;;9.98;3.50;;;;;;;;;;6108094;19;20042;-71
2023/01/02 07:01:29;;;;;;;11.18;3.15;;;;;;;;;;6109697;19;20135;-71
2023/01/02 07:03:34;;;;;;;9.15;3.45;;;;;;;;;;6109490;19;20022;-71
2023/01/02 07:05:43;;;;;;;8.98;3.40;;;;;;;;;;6106273;19;20035;-71
2023/01/02 07:07:50;;;;;;;9.23;3.80;;;;;;;;;;6107808;19;20028;-72
2023/01/02 07:09:56;;;;;;;10.23;3.85;;;;;;;;;;6109702;19;20006;-70
2023/01/02 07:12:01;;;;;;;9.50;4.18;;;;;;;;;;6109449;19;20017;-71
2023/01/02 07:14:06;;;;;;;12.57;4.55;;;;;;;;;;6110344;19;20302;-71
2023/01/02 07:16:13;;;;;;;9.57;4.75;;;;;;;;;;6110223;19;20484;-70
2023/01/02 07:18:18;;;;;;;12.05;4.88;;;;;;;;;;6106326;19;20010;-70
2023/01/02 07:20:24;;;;;;;11.10;4.50;;;;;;;;;;6104171;19;20011;-73
2023/01/02 07:22:29;;;;;;;12.25;4.85;;;;;;;;;;6108854;19;20357;-71
2023/01/02 07:24:37;;;;;;;10.68;4.03;;;;;;;;;;6108868;19;20014;-71
2023/01/02 07:26:43;;;;;;;9.88;4.20;;;;;;;;;;6103866;19;20014;-69
2023/01/02 07:28:48;;;;;;;10.35;4.45;;;;;;;;;;6108279;19;20013;-70
2023/01/02 07:30:53;;;;;;;9.95;4.25;;;;;;;;;;6108862;19;20025;-70
2023/01/02 07:32:58;;;;;;;14.25;5.30;;;;;;;;;;6109151;19;20017;-70
2023/01/02 07:35:03;;;;;;;10.02;4.88;;;;;;;;;;6107999;19;20046;-70
2023/01/02 07:37:08;;;;;;;12.10;5.45;;;;;;;;;;6108603;19;20011;-70
2023/01/02 07:39:13;;;;;;;12.38;5.03;;;;;;;;;;6107731;19;20042;-67
2023/01/02 07:41:22;;;;;;;12.95;5.97;;;;;;;;;;6106932;19;20403;-68
2023/01/02 07:43:27;;;;;;;12.52;6.20;;;;;;;;;;6106551;19;20011;-69
2023/01/02 07:45:33;;;;;;;11.00;5.78;;;;;;;;;;6107112;19;20021;-68
2023/01/02 07:47:38;;;;;;;7.07;5.10;;;;;;;;;;6105657;19;20009;-68
2023/01/02 07:49:43;;;;;;;7.32;4.80;;;;;;;;;;6109284;19;20483;-68
2023/01/02 07:51:49;;;;;;;7.97;4.45;;;;;;;;;;6107820;19;20006;-68
2023/01/02 07:53:54;;;;;;;8.48;4.90;;;;;;;;;;6105463;19;20015;-68
2023/01/02 07:55:59;;;;;;;9.70;5.15;;;;;;;;;;6105924;19;20582;-68
2023/01/02 07:58:07;;;;;;;12.93;4.95;;;;;;;;;;6107093;19;20070;-68
2023/01/02 08:00:16;;;;;;;10.98;4.75;;;;;;;;;;6106272;19;20700;-68
2023/01/02 08:02:21;;;;;;;8.70;4.78;;;;;;;;;;6107831;19;20010;-68
2023/01/02 08:04:26;;;;;;;12.52;4.47;;;;;;;;;;6107064;19;20018;-68
2023/01/02 08:06:33;;;;;;;9.88;3.95;;;;;;;;;;6108119;19;20018;-68
2023/01/02 08:08:39;;;;;;;10.05;3.95;;;;;;;;;;6107642;19;20013;-68
2023/01/02 08:10:47;;;;;;;9.50;3.30;;;;;;;;;;6105786;19;20009;-70
2023/01/02 08:12:51;;;;;;;6.60;2.92;;;;;;;;;;6108047;19;20101;-70
2023/01/02 08:14:59;;;;;;;6.10;2.53;;;;;;;;;;6106823;19;20019;-70
2023/01/02 08:17:04;;;;;;;5.35;2.67;;;;;;;;;;6107078;19;20006;-70
2023/01/02 08:19:09;;;;;;;4.85;3.13;;;;;;;;;;6105887;19;20022;-71
2023/01/02 08:21:14;;;;;;;6.10;2.60;;;;;;;;;;6098670;19;20015;-70
2023/01/02 08:23:19;;;;;;;6.75;2.47;;;;;;;;;;6105547;19;20006;-71
2023/01/02 08:25:24;;;;;;;8.18;2.58;;;;;;;;;;6107749;19;20068;-71
2023/01/02 08:27:29;;;;;;;6.40;2.30;;;;;;;;;;6104501;19;20121;-70
2023/01/02 08:29:34;;;;;;;6.57;2.17;;;;;;;;;;6105244;19;20389;-71
2023/01/02 08:31:42;;;;;;;3.95;1.98;;;;;;;;;;6107601;19;20443;-70
2023/01/02 08:33:48;;;;;;;3.45;1.70;;;;;;;;;;6106722;19;20030;-70
2023/01/02 08:35:52;;;;;;;4.95;2.10;;;;;;;;;;6106384;19;20246;-70
2023/01/02 08:37:57;;;;;;;9.70;2.30;;;;;;;;;;6106620;19;20397;-70
2023/01/02 08:40:03;;;;;;;2.65;1.50;;;;;;;;;;6107391;19;20010;-69
2023/01/02 08:42:08;;;;;;;5.82;2.33;;;;;;;;;;6106033;19;20082;-68
2023/01/02 08:44:14;;;;;;;2.55;1.20;;;;;;;;;;6106254;19;20471;-68
2023/01/02 08:46:20;;;;;;;7.13;2.28;;;;;;;;;;6107354;19;20006;-69
2023/01/02 08:48:29;;;;;;;6.63;1.70;;;;;;;;;;6105195;19;20019;-69
2023/01/02 08:50:34;;;;;;;6.28;1.60;;;;;;;;;;6107763;19;20006;-70
2023/01/02 08:52:39;;;;;;;4.25;1.52;;;;;;;;;;6105441;19;20368;-69
2023/01/02 08:54:44;;;;;;;5.18;2.13;;;;;;;;;;6104919;19;20398;-69
2023/01/02 08:56:49;;;;;;;6.60;1.73;;;;;;;;;;6106177;19;20045;-69
2023/01/02 08:58:56;;;;;;;4.75;1.70;;;;;;;;;;6106450;19;20387;-69
2023/01/02 09:01:03;;;;;;;9.13;2.10;;;;;;;;;;6106825;19;20014;-69
2023/01/02 09:03:08;;;;;;;8.60;1.80;;;;;;;;;;6107495;19;20399;-72
2023/01/02 09:05:16;;;;;;;3.28;1.50;;;;;;;;;;6107291;19;20021;-71
2023/01/02 09:07:21;;;;;;;5.70;1.60;;;;;;;;;;6105897;19;20472;-72
2023/01/02 09:09:26;;;;;;;4.72;1.48;;;;;;;;;;6108684;19;20018;-70
2023/01/02 09:11:33;;;;;;;7.60;1.42;;;;;;;;;;6106190;19;20015;-68
2023/01/02 09:13:41;;;;;;;10.50;2.75;;;;;;;;;;6107488;19;20078;-68
2023/01/02 09:15:46;;;;;;;6.75;1.45;;;;;;;;;;6105455;19;20023;-69
2023/01/02 09:17:51;;;;;;;7.15;2.50;;;;;;;;;;6104882;19;20021;-69
2023/01/02 09:19:56;;;;;;;4.97;1.48;;;;;;;;;;6106215;19;20010;-69
2023/01/02 09:22:04;;;;;;;7.75;1.75;;;;;;;;;;6101686;19;20042;-69
2023/01/02 09:24:10;;;;;;;6.15;2.33;;;;;;;;;;6106634;19;20575;-69
2023/01/02 09:26:15;;;;;;;8.63;1.85;;;;;;;;;;6106902;19;20383;-69
2023/01/02 09:28:22;;;;;;;4.80;1.85;;;;;;;;;;6102138;19;20054;-71
2023/01/02 09:30:31;;;;;;;9.82;2.05;;;;;;;;;;6105230;19;20022;-71
2023/01/02 09:32:36;;;;;;;7.75;1.70;;;;;;;;;;6103890;19;20014;-69
2023/01/02 09:34:40;;;;;;;5.70;1.73;;;;;;;;;;6104587;19;20034;-70
2023/01/02 09:36:46;;;;;;;3.15;1.23;;;;;;;;;;6101526;19;20079;-70
2023/01/02 09:38:57;;;;;;;7.95;1.80;;;;;;;;;;6104128;19;20046;-70
2023/01/02 09:41:10;;;;;;;10.93;3.92;;;;;;;;;;6104575;19;20634;-70
2023/01/02 09:43:15;;;;;;;9.60;2.72;;;;;;;;;;6109081;19;20078;-70
2023/01/02 09:45:21;;;;;;;10.77;2.35;;;;;;;;;;6110459;19;20586;-71
2023/01/02 09:47:29;;;;;;;5.40;2.30;;;;;;;;;;6110729;19;20021;-72
2023/01/02 09:49:36;;;;;;;6.07;2.53;;;;;;;;;;6107060;19;20293;-72
2023/01/02 09:51:41;;;;;;;8.60;2.17;;;;;;;;;;6111484;19;20009;-73
2023/01/02 09:53:46;;;;;;;4.50;1.90;;;;;;;;;;6105702;19;20078;-73
2023/01/02 09:55:56;;;;;;;4.95;2.45;;;;;;;;;;6111458;19;20725;-72
2023/01/02 09:58:13;;;;;;;8.70;1.85;;;;;;;;;;6109484;19;20030;-73
2023/01/02 10:00:21;;;;;;;10.00;3.28;;;;;;;;;;6108897;19;20027;-73
2023/01/02 10:02:35;;;;;;;5.10;1.77;;;;;;;;;;6109360;19;20045;-73
2023/01/02 10:04:52;;;;;;;13.13;3.38;;;;;;;;;;6110004;19;20019;-73
2023/01/02 10:07:06;;;;;;;8.40;2.40;;;;;;;;;;6106831;19;20020;-73
2023/01/02 10:09:16;;;;;;;9.50;2.40;;;;;;;;;;6107573;19;20017;-73
2023/01/02 10:11:32;;;;;;;9.88;2.42;;;;;;;;;;6104692;19;20014;-74
2023/01/02 10:13:41;;;;;;;6.88;2.70;;;;;;;;;;6105401;19;20337;-74
2023/01/02 10:16:07;;;;;;;5.75;2.67;;;;;;;;;;6107384;19;20074;-72
2023/01/02 10:18:18;;;;;;;15.45;3.30;;;;;;;;;;6108796;19;20014;-73
2023/01/02 10:20:27;;;;;;;9.18;3.00;;;;;;;;;;6107721;19;20445;-71
2023/01/02 10:22:40;;;;;;;12.90;3.55;;;;;;;;;;6109101;19;20682;-73
2023/01/02 10:24:48;;;;;;;7.97;3.13;;;;;;;;;;6107354;19;20042;-73
2023/01/02 10:26:56;;;;;;;10.23;2.92;;;;;;;;;;6111148;19;20482;-73
2023/01/02 10:29:09;;;;;;;9.40;2.97;;;;;;;;;;6109941;19;20018;-73
2023/01/02 10:31:19;;;;;;;5.20;2.42;;;;;;;;;;6109862;19;20007;-73
2023/01/02 10:33:30;;;;;;;8.30;2.53;;;;;;;;;;6108948;19;20041;-72
2023/01/02 10:35:38;;;;;;;8.50;2.78;;;;;;;;;;6109777;19;20022;-72
2023/01/02 10:37:43;;;;;;;7.68;2.55;;;;;;;;;;6110071;19;20007;-70
2023/01/02 10:39:51;;;;;;;7.53;2.25;;;;;;;;;;6110782;19;20017;-70
2023/01/02 10:42:03;;;;;;;8.02;2.33;;;;;;;;;;6110253;19;20010;-70
2023/01/02 10:44:10;;;;;;;9.05;2.50;;;;;;;;;;6108838;19;20010;-69
2023/01/02 10:46:15;;;;;;;6.65;2.15;;;;;;;;;;6109269;19;20030;-70
2023/01/02 10:48:22;;;;;;;6.97;2.33;;;;;;;;;;6109491;19;20003;-72
2023/01/02 10:50:32;;;;;;;7.75;2.08;;;;;;;;;;6109560;19;20592;-72
2023/01/02 10:52:42;;;;;;;6.38;1.85;;;;;;;;;;6106157;19;20027;-71
2023/01/02 10:54:51;;;;;;;6.22;2.58;;;;;;;;;;6104659;19;20018;-71
2023/01/02 10:57:06;;;;;;;5.03;2.15;;;;;;;;;;6109896;19;20022;-72
2023/01/02 10:59:21;;;;;;;8.88;1.92;;;;;;;;;;6105682;19;20245;-71
2023/01/02 11:01:26;;;;;;;4.85;1.50;;;;;;;;;;6106749;19;20042;-71
2023/01/02 11:03:32;;;;;;;7.72;2.20;;;;;;;;;;6109165;19;20551;-72
2023/01/02 11:05:47;;;;;;;5.78;2.35;;;;;;;;;;6108122;19;20077;-72
2023/01/02 11:07:53;;;;;;;7.15;2.20;;;;;;;;;;6107841;19;20010;-71
2023/01/02 11:09:58;;;;;;;9.57;2.70;;;;;;;;;;6108312;19;20010;-72
2023/01/02 11:12:12;;;;;;;10.57;2.05;;;;;;;;;;6107295;19;20007;-72
2023/01/02 11:14:17;;;;;;;7.88;2.10;;;;;;;;;;6108077;19;20405;-72
2023/01/02 11:16:26;;;;;;;11.35;2.95;;;;;;;;;;6108464;19;20015;-71
2023/01/02 11:18:33;;;;;;;8.30;2.60;;;;;;;;;;6107908;19;20051;-72
2023/01/02 11:20:39;;;;;;;6.93;2.13;;;;;;;;;;6106267;19;20015;-70
2023/01/02 11:22:46;;;;;;;15.95;2.97;;;;;;;;;;6105239;19;20017;-70
2023/01/02 11:24:58;;;;;;;10.57;2.60;;;;;;;;;;6108581;19;20489;-70
2023/01/02 11:27:07;;;;;;;7.45;2.78;;;;;;;;;;6104446;19;20007;-71
2023/01/02 11:29:17;;;;;;;12.32;3.45;;;;;;;;;;6106162;19;20467;-71
2023/01/02 11:31:26;;;;;;;9.25;2.92;;;;;;;;;;6107424;19;20006;-72
2023/01/02 11:33:38;;;;;;;10.80;3.08;;;;;;;;;;6105926;19;20050;-71
2023/01/02 11:35:46;;;;;;;8.35;3.10;;;;;;;;;;6106485;19;20011;-72
2023/01/02 11:37:53;;;;;;;8.63;2.80;;;;;;;;;;6108484;19;20383;-74
2023/01/02 11:40:02;;;;;;;11.60;3.00;;;;;;;;;;6108263;19;20011;-74
2023/01/02 11:44:48;;;;;;;8.25;3.08;;;;;;;;;;6108424;19;20351;-73
2023/01/02 11:46:54;;;;;;;16.00;3.15;;;;;;;;;;6105462;19;20030;-72
2023/01/02 11:49:06;;;;;;;11.73;2.83;;;;;;;;;;6108593;19;20716;-72
2023/01/02 11:51:16;;;;;;;9.45;3.22;;;;;;;;;;6107056;19;20007;-73
2023/01/02 11:53:24;;;;;;;15.38;3.78;;;;;;;;;;6105471;19;20019;-72
2023/01/02 11:55:36;;;;;;;10.20;3.08;;;;;;;;;;6106545;19;20007;-72
2023/01/02 11:57:49;;;;;;;8.13;2.38;;;;;;;;;;6108568;19;20010;-73
2023/01/02 11:59:55;;;;;;;9.38;2.70;;;;;;;;;;6108249;19;20773;-72
2023/01/02 12:02:03;;;;;;;7.68;3.30;;;;;;;;;;6105979;19;20010;-72
2023/01/02 12:04:11;;;;;;;11.60;3.25;;;;;;;;;;6108185;19;20066;-72
2023/01/02 12:06:18;;;;;;;7.90;3.38;;;;;;;;;;6105334;19;20011;-73
2023/01/02 12:08:32;;;;;;;7.47;3.17;;;;;;;;;;6092241;19;20066;-71
2023/01/02 12:10:53;;;;;;;9.23;2.80;;;;;;;;;;6100946;19;20018;-72
2023/01/02 12:13:13;;;;;;;14.07;3.60;;;;;;;;;;6107597;19;20070;-72
2023/01/02 12:15:41;;;;;;;8.77;2.88;;;;;;;;;;6106644;19;19999;-69
2023/01/02 12:17:50;;;;;;;7.45;2.60;;;;;;;;;;6106326;19;20713;-69
2023/01/02 12:20:06;;;;;;;9.00;3.30;;;;;;;;;;6105047;19;20703;-69
2023/01/02 12:22:36;;;;;;;5.28;2.63;;;;;;;;;;6102829;19;20027;-73
2023/01/02 12:24:51;;;;;;;6.82;2.90;;;;;;;;;;6098407;19;20037;-70
2023/01/02 12:27:01;;;;;;;10.23;3.05;;;;;;;;;;6104572;19;20038;-71
2023/01/02 12:29:21;;;;;;;9.00;3.22;;;;;;;;;;6104734;19;20742;-72
2023/01/02 12:32:07;;;;;;;6.88;3.05;;;;;;;;;;6107860;19;20010;-71
2023/01/02 12:34:24;;;;;;;12.05;3.83;;;;;;;;;;6106447;19;20082;-70
2023/01/02 12:36:39;;;;;;;13.45;4.07;;;;;;;;;;6105897;19;20074;-69
2023/01/02 12:38:58;;;;;;;9.07;3.22;;;;;;;;;;6102567;19;20354;-68
2023/01/02 12:41:14;;;;;;;7.97;2.92;;;;;;;;;;6106053;19;20017;-70
2023/01/02 12:43:37;;;;;;;13.35;4.40;;;;;;;;;;6105033;19;20011;-68
2023/01/02 12:45:49;;;;;;;10.63;4.03;;;;;;;;;;6106009;19;20010;-68
2023/01/02 12:48:05;;;;;;;11.18;4.82;;;;;;;;;;6104971;19;20042;-68